Terminal Aerodrome Forecast
Issued by NWS

Home | Current Version | Previous Version | Text Only | Print | Product List | Glossary On
Versions: 1 2 3 4 5 6 7 8 9 10 11 12 13 14 15 16 17 18 19 20 21
000
FTUS41 KALY 170257 AAA
TAFPSF
TAF AMD
KPSF 170257Z 1703/1724 34004KT 1SM -SN BR SCT008 OVC020
      TEMPO 1703/1706 3/4SM -SN BR OVC008
     FM170600 VRB03KT 1/2SM SN FG VV005
     FM171300 35004KT 3/4SM -SN BKN006 OVC010
     FM171600 32010G17KT 3SM -SN BR SCT010 OVC020
     FM171900 30011G18KT P6SM SCT020 OVC035=

USA.gov is the U.S. government's official web portal to all federal, state and local government web resources and services.